createdAt,value
2017-09-25T00:00:57.533Z,27.00
2017-09-25T00:01:58.258Z,30.00
2017-09-25T00:02:58.983Z,38.00
2017-09-25T00:03:59.731Z,31.00
2017-09-25T00:05:00.454Z,40.00
2017-09-25T00:06:01.179Z,45.00
2017-09-25T00:07:01.924Z,32.00
2017-09-25T00:08:02.647Z,31.00
2017-09-25T00:09:03.374Z,39.00
2017-09-25T00:10:04.097Z,31.00
2017-09-25T00:11:04.841Z,34.00
2017-09-25T00:12:05.565Z,31.00
2017-09-25T00:13:06.292Z,39.00
2017-09-25T00:14:07.012Z,36.00
2017-09-25T00:15:07.740Z,39.00
2017-09-25T00:16:08.485Z,38.00
2017-09-25T00:17:09.213Z,30.00
2017-09-25T00:18:09.956Z,33.00
2017-09-25T00:19:10.680Z,36.00
2017-09-25T00:20:11.427Z,46.00
2017-09-25T00:21:12.150Z,39.00
2017-09-25T00:22:12.875Z,41.00
2017-09-25T00:23:13.599Z,40.00
2017-09-25T00:24:14.324Z,31.00
2017-09-25T00:25:15.047Z,36.00
2017-09-25T00:26:15.772Z,38.00
2017-09-25T00:27:16.519Z,30.00
2017-09-25T00:28:17.244Z,39.00
2017-09-25T00:29:17.965Z,40.00
2017-09-25T00:30:18.691Z,37.00
2017-09-25T00:31:19.415Z,31.00
2017-09-25T00:32:20.137Z,36.00
2017-09-25T00:33:20.864Z,32.00
2017-09-25T00:34:21.610Z,40.00
2017-09-25T00:35:22.337Z,32.00
2017-09-25T00:36:23.076Z,40.00
2017-09-25T00:37:23.829Z,36.00
2017-09-25T00:38:24.523Z,29.00
2017-09-25T00:39:25.248Z,41.00
2017-09-25T00:40:25.972Z,41.00
2017-09-25T00:41:26.718Z,40.00
2017-09-25T00:42:27.442Z,37.00
2017-09-25T00:43:28.190Z,34.00
2017-09-25T00:44:28.916Z,37.00
2017-09-25T00:45:29.640Z,35.00
2017-09-25T00:46:30.387Z,41.00
2017-09-25T00:47:31.111Z,36.00
2017-09-25T00:48:31.858Z,38.00
2017-09-25T00:49:32.582Z,28.00
2017-09-25T00:50:33.307Z,42.00
2017-09-25T00:51:34.030Z,45.00
2017-09-25T00:52:34.754Z,46.00
2017-09-25T00:53:35.478Z,41.00
2017-09-25T00:54:36.199Z,45.00
2017-09-25T00:55:36.952Z,34.00
2017-09-25T00:56:37.670Z,42.00
2017-09-25T00:57:38.395Z,29.00
2017-09-25T00:58:39.120Z,44.00
2017-09-25T00:59:39.843Z,38.00
2017-09-25T01:00:40.592Z,41.00
2017-09-25T01:01:41.315Z,44.00
2017-09-25T01:02:42.043Z,42.00
2017-09-25T01:03:42.761Z,40.00
2017-09-25T01:04:43.487Z,43.00
2017-09-25T01:05:44.212Z,38.00
2017-09-25T01:06:44.936Z,44.00
2017-09-25T01:07:45.681Z,42.00
2017-09-25T01:08:46.405Z,51.00
2017-09-25T01:09:47.130Z,37.00
2017-09-25T01:10:47.875Z,48.00
2017-09-25T01:11:48.599Z,44.00
2017-09-25T01:12:49.320Z,49.00
2017-09-25T01:13:50.045Z,49.00
2017-09-25T01:14:50.801Z,38.00
2017-09-25T01:15:51.519Z,41.00
2017-09-25T01:16:52.238Z,36.00
2017-09-25T01:17:52.963Z,46.00
2017-09-25T01:18:53.683Z,45.00
2017-09-25T01:19:54.410Z,48.00
2017-09-25T01:20:55.134Z,36.00
2017-09-25T01:21:55.881Z,52.00
2017-09-25T01:22:56.606Z,40.00
2017-09-25T01:23:57.327Z,44.00
2017-09-25T01:24:58.053Z,41.00
2017-09-25T01:25:58.799Z,49.00
2017-09-25T01:26:59.531Z,52.00
2017-09-25T01:28:00.246Z,50.00
2017-09-25T01:29:00.969Z,39.00
2017-09-25T01:30:01.698Z,50.00
2017-09-25T01:31:02.417Z,39.00
2017-09-25T01:32:03.166Z,45.00
2017-09-25T01:33:03.888Z,54.00
2017-09-25T01:34:04.611Z,44.00
2017-09-25T01:35:05.333Z,40.00
2017-09-25T01:36:06.058Z,47.00
2017-09-25T01:37:06.782Z,53.00
2017-09-25T01:38:07.504Z,54.00
2017-09-25T01:39:08.229Z,55.00
2017-09-25T01:40:08.953Z,49.00
2017-09-25T01:41:09.675Z,50.00
2017-09-25T01:42:10.401Z,47.00
2017-09-25T01:43:11.149Z,59.00
2017-09-25T01:44:11.896Z,52.00
2017-09-25T01:45:12.619Z,58.00
2017-09-25T01:46:13.342Z,57.00
2017-09-25T01:47:14.087Z,43.00
2017-09-25T01:48:14.835Z,47.00
2017-09-25T01:49:15.581Z,48.00
2017-09-25T01:50:16.305Z,55.00
2017-09-25T01:51:17.029Z,55.00
2017-09-25T01:52:17.752Z,52.00
2017-09-25T01:53:18.475Z,47.00
2017-09-25T01:54:19.201Z,60.00
2017-09-25T01:55:19.926Z,56.00
2017-09-25T01:56:20.672Z,40.00
2017-09-25T01:57:21.393Z,61.00
2017-09-25T01:58:22.141Z,51.00
2017-09-25T01:59:22.863Z,47.00
2017-09-25T02:00:23.589Z,52.00
2017-09-25T02:01:24.338Z,57.00
2017-09-25T02:02:25.060Z,56.00
2017-09-25T02:03:25.803Z,52.00
2017-09-25T02:04:26.529Z,56.00
2017-09-25T02:05:27.253Z,48.00
2017-09-25T02:06:27.975Z,63.00
2017-09-25T02:07:28.701Z,55.00
2017-09-25T02:08:29.426Z,69.00
2017-09-25T02:09:30.149Z,47.00
2017-09-25T02:10:30.872Z,49.00
2017-09-25T02:11:31.621Z,81.00
2017-09-25T02:12:32.344Z,64.00
2017-09-25T02:13:33.067Z,57.00
2017-09-25T02:14:33.814Z,53.00
2017-09-25T02:15:34.544Z,48.00
2017-09-25T02:16:35.263Z,64.00
2017-09-25T02:17:36.015Z,59.00
2017-09-25T02:18:36.752Z,57.00
2017-09-25T02:19:37.499Z,53.00
2017-09-25T02:20:38.224Z,48.00
2017-09-25T02:21:38.950Z,60.00
2017-09-25T02:22:39.673Z,58.00
2017-09-25T02:23:40.418Z,56.00
2017-09-25T02:24:41.143Z,60.00
2017-09-25T02:25:41.863Z,53.00
2017-09-25T02:26:42.617Z,57.00
2017-09-25T02:27:43.336Z,55.00
2017-09-25T02:28:44.061Z,77.00
2017-09-25T02:29:44.784Z,60.00
2017-09-25T02:30:45.505Z,58.00
2017-09-25T02:31:46.249Z,63.00
2017-09-25T02:32:46.975Z,60.00
2017-09-25T02:33:47.723Z,63.00
2017-09-25T02:34:48.445Z,72.00
2017-09-25T02:35:49.172Z,49.00
2017-09-25T02:36:49.893Z,105.00
2017-09-25T02:37:50.618Z,69.00
2017-09-25T02:38:51.344Z,77.00
2017-09-25T02:39:52.068Z,49.00
2017-09-25T02:40:52.791Z,74.00
2017-09-25T02:41:53.513Z,76.00
2017-09-25T02:42:54.263Z,64.00
2017-09-25T02:43:54.984Z,72.00
2017-09-25T02:44:55.706Z,77.00
2017-09-25T02:45:56.449Z,89.00
2017-09-25T02:46:57.176Z,57.00
2017-09-25T02:47:57.924Z,54.00
2017-09-25T02:48:58.671Z,80.00
2017-09-25T02:49:59.395Z,61.00
2017-09-25T02:51:00.121Z,55.00
2017-09-25T02:52:00.868Z,69.00
2017-09-25T02:53:01.590Z,55.00
2017-09-25T02:54:02.314Z,53.00
2017-09-25T02:55:03.037Z,62.00
2017-09-25T02:56:03.758Z,54.00
2017-09-25T02:57:04.484Z,59.00
2017-09-25T02:58:05.205Z,72.00
2017-09-25T02:59:05.928Z,60.00
2017-09-25T03:00:06.651Z,48.00
2017-09-25T03:01:07.384Z,63.00
2017-09-25T03:02:08.097Z,58.00
2017-09-25T03:03:08.819Z,56.00
2017-09-25T03:04:09.544Z,59.00
2017-09-25T03:05:10.265Z,69.00
2017-09-25T03:06:11.012Z,65.00
2017-09-25T03:07:11.758Z,53.00
2017-09-25T03:08:12.483Z,57.00
2017-09-25T03:09:13.230Z,63.00
2017-09-25T03:10:13.952Z,66.00
2017-09-25T03:11:14.700Z,46.00
2017-09-25T03:12:15.426Z,55.00
2017-09-25T03:13:16.151Z,65.00
2017-09-25T03:14:16.875Z,54.00
2017-09-25T03:15:17.597Z,55.00
2017-09-25T03:16:18.321Z,54.00
2017-09-25T03:17:19.045Z,52.00
2017-09-25T03:18:19.768Z,52.00
2017-09-25T03:19:20.491Z,55.00
2017-09-25T03:20:21.215Z,68.00
2017-09-25T03:21:21.938Z,52.00
2017-09-25T03:22:22.662Z,51.00
2017-09-25T03:23:23.406Z,62.00
2017-09-25T03:24:24.151Z,62.00
2017-09-25T03:25:24.874Z,65.00
2017-09-25T03:26:25.599Z,60.00
2017-09-25T03:27:26.345Z,46.00
2017-09-25T03:28:27.091Z,55.00
2017-09-25T03:29:27.815Z,52.00
2017-09-25T03:30:28.540Z,63.00
2017-09-25T03:31:29.264Z,58.00
2017-09-25T03:32:29.991Z,49.00
2017-09-25T03:33:30.709Z,46.00
2017-09-25T03:34:31.435Z,60.00
2017-09-25T03:35:32.161Z,45.00
2017-09-25T03:36:32.883Z,63.00
2017-09-25T03:37:33.607Z,49.00
2017-09-25T03:38:34.333Z,56.00
2017-09-25T03:39:35.056Z,55.00
2017-09-25T03:40:35.782Z,48.00
2017-09-25T03:41:36.508Z,40.00
2017-09-25T03:42:37.230Z,50.00
2017-09-25T03:43:37.954Z,54.00
2017-09-25T03:44:38.676Z,57.00
2017-09-25T03:45:39.401Z,51.00
2017-09-25T03:46:40.123Z,43.00
2017-09-25T03:47:40.849Z,49.00
2017-09-25T03:48:41.573Z,52.00
2017-09-25T03:49:42.294Z,57.00
2017-09-25T03:50:43.024Z,54.00
2017-09-25T03:51:43.740Z,41.00
2017-09-25T03:52:44.466Z,43.00
2017-09-25T03:53:45.191Z,53.00
2017-09-25T03:54:45.940Z,53.00
2017-09-25T03:55:46.687Z,49.00
2017-09-25T03:56:47.411Z,59.00
2017-09-25T03:57:48.135Z,63.00
2017-09-25T03:58:48.860Z,47.00
2017-09-25T03:59:49.603Z,38.00
2017-09-25T04:00:50.323Z,38.00
2017-09-25T04:01:51.047Z,53.00
2017-09-25T04:02:51.776Z,57.00
2017-09-25T04:03:52.489Z,60.00
2017-09-25T04:04:53.214Z,48.00
2017-09-25T04:05:53.960Z,48.00
2017-09-25T04:06:54.678Z,47.00
2017-09-25T04:07:55.401Z,56.00
2017-09-25T04:08:56.125Z,69.00
2017-09-25T04:09:56.870Z,48.00
2017-09-25T04:10:57.616Z,61.00
2017-09-25T04:11:58.348Z,52.00
2017-09-25T04:12:59.059Z,63.00
2017-09-25T04:13:59.782Z,49.00
2017-09-25T04:15:00.513Z,44.00
2017-09-25T04:16:01.251Z,57.00
2017-09-25T04:17:01.970Z,51.00
2017-09-25T04:18:02.693Z,49.00
2017-09-25T04:19:03.417Z,53.00
2017-09-25T04:20:04.139Z,44.00
2017-09-25T04:21:04.859Z,40.00
2017-09-25T04:22:05.589Z,60.00
2017-09-25T04:23:06.308Z,75.00
2017-09-25T04:24:07.031Z,51.00
2017-09-25T04:25:07.756Z,49.00
2017-09-25T04:26:08.476Z,56.00
2017-09-25T04:27:09.226Z,49.00
2017-09-25T04:28:09.948Z,52.00
2017-09-25T04:29:10.719Z,48.00
2017-09-25T04:30:11.415Z,53.00
2017-09-25T04:31:12.136Z,63.00
2017-09-25T04:32:12.862Z,52.00
2017-09-25T04:33:13.605Z,60.00
2017-09-25T04:34:14.349Z,65.00
2017-09-25T04:35:15.094Z,51.00
2017-09-25T04:36:15.816Z,67.00
2017-09-25T04:37:16.539Z,54.00
2017-09-25T04:38:17.280Z,64.00
2017-09-25T04:39:18.009Z,60.00
2017-09-25T04:40:18.752Z,54.00
2017-09-25T04:41:19.496Z,49.00
2017-09-25T04:42:20.217Z,66.00
2017-09-25T04:43:20.939Z,57.00
2017-09-25T04:44:21.661Z,57.00
2017-09-25T04:45:22.385Z,54.00
2017-09-25T04:46:23.112Z,62.00
2017-09-25T04:47:23.830Z,54.00
2017-09-25T04:48:24.553Z,63.00
2017-09-25T04:49:25.275Z,62.00
2017-09-25T04:50:25.998Z,74.00
2017-09-25T04:51:26.722Z,57.00
2017-09-25T04:52:27.444Z,62.00
2017-09-25T04:53:28.167Z,59.00
2017-09-25T04:54:28.889Z,81.00
2017-09-25T04:55:29.613Z,68.00
2017-09-25T04:56:30.358Z,77.00
2017-09-25T04:57:31.080Z,72.00
2017-09-25T04:58:31.804Z,67.00
2017-09-25T04:59:32.544Z,45.00
2017-09-25T05:00:33.270Z,51.00
2017-09-25T05:01:33.994Z,58.00
2017-09-25T05:02:34.715Z,55.00
2017-09-25T05:03:35.464Z,53.00
2017-09-25T05:04:36.190Z,61.00
2017-09-25T05:05:36.914Z,50.00
2017-09-25T05:06:37.638Z,43.00
2017-09-25T05:07:38.361Z,57.00
2017-09-25T05:08:39.106Z,61.00
2017-09-25T05:09:39.828Z,68.00
2017-09-25T05:10:40.551Z,62.00
2017-09-25T05:11:41.276Z,66.00
2017-09-25T05:12:42.051Z,61.00
2017-09-25T05:13:42.763Z,66.00
2017-09-25T05:14:43.485Z,68.00
2017-09-25T05:15:44.210Z,64.00
2017-09-25T05:16:44.933Z,82.00
2017-09-25T05:17:45.656Z,60.00
2017-09-25T05:18:46.384Z,64.00
2017-09-25T05:19:47.101Z,66.00
2017-09-25T05:20:47.826Z,59.00
2017-09-25T05:21:48.572Z,69.00
2017-09-25T05:22:49.318Z,73.00
2017-09-25T05:23:50.038Z,53.00
2017-09-25T05:24:50.760Z,56.00
2017-09-25T05:25:51.486Z,47.00
2017-09-25T05:26:52.211Z,62.00
2017-09-25T05:27:52.934Z,71.00
2017-09-25T05:28:53.680Z,58.00
2017-09-25T05:29:54.406Z,58.00
2017-09-25T05:30:55.131Z,65.00
2017-09-25T05:31:55.853Z,57.00
2017-09-25T05:32:56.576Z,67.00
2017-09-25T05:33:57.302Z,62.00
2017-09-25T05:34:58.025Z,73.00
2017-09-25T05:35:58.747Z,51.00
2017-09-25T05:36:59.473Z,58.00
2017-09-25T05:38:00.197Z,57.00
2017-09-25T05:39:00.922Z,68.00
2017-09-25T05:40:01.671Z,62.00
2017-09-25T05:41:02.391Z,68.00
2017-09-25T05:42:03.117Z,65.00
2017-09-25T05:43:03.863Z,62.00
2017-09-25T05:44:04.612Z,65.00
2017-09-25T05:45:05.340Z,65.00
2017-09-25T05:46:06.065Z,66.00
2017-09-25T05:47:06.809Z,52.00
2017-09-25T05:48:07.555Z,70.00
2017-09-25T05:49:08.280Z,57.00
2017-09-25T05:50:09.006Z,58.00
2017-09-25T05:51:09.733Z,60.00
2017-09-25T05:52:10.457Z,52.00
2017-09-25T05:53:11.185Z,73.00
2017-09-25T05:54:11.908Z,76.00
2017-09-25T05:55:12.633Z,60.00
2017-09-25T05:56:13.360Z,69.00
2017-09-25T05:57:14.085Z,72.00
2017-09-25T05:58:14.811Z,63.00
2017-09-25T05:59:15.540Z,73.00
2017-09-25T06:00:16.263Z,71.00
2017-09-25T06:01:16.989Z,79.00
2017-09-25T06:02:17.716Z,62.00
2017-09-25T06:03:18.442Z,58.00
2017-09-25T06:04:19.167Z,67.00
2017-09-25T06:05:19.893Z,63.00
2017-09-25T06:06:20.618Z,68.00
2017-09-25T06:07:21.366Z,61.00
2017-09-25T06:08:22.094Z,61.00
2017-09-25T06:09:22.841Z,63.00
2017-09-25T06:10:23.571Z,72.00
2017-09-25T06:11:24.293Z,62.00
2017-09-25T06:12:25.018Z,54.00
2017-09-25T06:13:25.746Z,64.00
2017-09-25T06:14:26.473Z,63.00
2017-09-25T06:15:27.200Z,55.00
2017-09-25T06:16:27.925Z,69.00
2017-09-25T06:17:28.655Z,65.00
2017-09-25T06:18:29.381Z,55.00
2017-09-25T06:19:30.131Z,67.00
2017-09-25T06:20:30.882Z,69.00
2017-09-25T06:21:31.609Z,60.00
2017-09-25T06:22:32.336Z,76.00
2017-09-25T06:23:33.085Z,57.00
2017-09-25T06:24:33.830Z,69.00
2017-09-25T06:25:34.575Z,68.00
2017-09-25T06:26:35.303Z,67.00
2017-09-25T06:27:36.054Z,64.00
2017-09-25T06:28:36.781Z,71.00
2017-09-25T06:29:37.529Z,74.00
2017-09-25T06:30:38.256Z,64.00
2017-09-25T06:31:38.997Z,65.00
2017-09-25T06:32:39.710Z,54.00
2017-09-25T06:33:40.441Z,53.00
2017-09-25T06:34:41.195Z,65.00
2017-09-25T06:35:41.925Z,76.00
2017-09-25T06:36:42.677Z,70.00
2017-09-25T06:37:43.405Z,59.00
2017-09-25T06:38:44.136Z,56.00
2017-09-25T06:39:44.864Z,65.00
2017-09-25T06:40:45.594Z,64.00
2017-09-25T06:41:46.324Z,61.00
2017-09-25T06:42:47.054Z,65.00
2017-09-25T06:43:47.785Z,60.00
2017-09-25T06:44:48.518Z,44.00
2017-09-25T06:45:49.249Z,54.00
2017-09-25T06:46:49.979Z,62.00
2017-09-25T06:47:50.709Z,64.00
2017-09-25T06:48:51.437Z,58.00
2017-09-25T06:49:52.167Z,61.00
2017-09-25T06:50:52.899Z,60.00
2017-09-25T06:51:53.628Z,64.00
2017-09-25T06:52:54.360Z,72.00
2017-09-25T06:53:55.086Z,58.00
2017-09-25T06:54:55.819Z,59.00
2017-09-25T06:55:56.572Z,65.00
2017-09-25T06:56:57.302Z,62.00
2017-09-25T06:57:58.056Z,51.00
2017-09-25T06:58:58.805Z,60.00
2017-09-25T06:59:59.538Z,44.00
2017-09-25T07:01:00.272Z,62.00
2017-09-25T07:02:01.003Z,63.00
2017-09-25T07:03:01.733Z,55.00
2017-09-25T07:04:02.467Z,44.00
2017-09-25T07:05:03.201Z,61.00
2017-09-25T07:06:03.933Z,54.00
2017-09-25T07:07:04.662Z,58.00
2017-09-25T07:08:05.417Z,90.00
2017-09-25T07:09:06.150Z,57.00
2017-09-25T07:10:06.883Z,71.00
2017-09-25T07:11:07.613Z,49.00
2017-09-25T07:12:08.344Z,56.00
2017-09-25T07:13:09.077Z,54.00
2017-09-25T07:14:09.807Z,61.00
2017-09-25T07:15:10.538Z,64.00
2017-09-25T07:16:11.269Z,52.00
2017-09-25T07:17:12.022Z,53.00
2017-09-25T07:18:12.755Z,54.00
2017-09-25T07:19:13.508Z,51.00
2017-09-25T07:20:14.239Z,53.00
2017-09-25T07:21:14.971Z,54.00
2017-09-25T07:22:15.705Z,59.00
2017-09-25T07:23:16.436Z,51.00
2017-09-25T07:24:17.191Z,50.00
2017-09-25T07:25:17.919Z,66.00
2017-09-25T07:26:18.649Z,52.00
2017-09-25T07:27:19.382Z,51.00
2017-09-25T07:28:20.111Z,51.00
2017-09-25T07:29:20.844Z,53.00
2017-09-25T07:30:21.577Z,60.00
2017-09-25T07:31:22.329Z,69.00
2017-09-25T07:32:23.057Z,69.00
2017-09-25T07:33:23.793Z,61.00
2017-09-25T07:34:24.525Z,48.00
2017-09-25T07:35:25.262Z,47.00
2017-09-25T07:36:26.021Z,49.00
2017-09-25T07:37:26.771Z,55.00
2017-09-25T07:38:27.502Z,57.00
2017-09-25T07:39:28.232Z,58.00
2017-09-25T07:40:28.968Z,57.00
2017-09-25T07:41:29.720Z,51.00
2017-09-25T07:42:30.473Z,54.00
2017-09-25T07:43:31.205Z,67.00
2017-09-25T07:44:31.935Z,52.00
2017-09-25T07:45:32.666Z,60.00
2017-09-25T07:46:33.396Z,56.00
2017-09-25T07:47:34.129Z,52.00
2017-09-25T07:48:34.860Z,61.00
2017-09-25T07:49:35.593Z,54.00
2017-09-25T07:50:36.323Z,51.00
2017-09-25T07:51:37.053Z,55.00
2017-09-25T07:52:37.787Z,59.00
2017-09-25T07:53:38.519Z,68.00
2017-09-25T07:54:39.254Z,51.00
2017-09-25T07:55:39.984Z,46.00
2017-09-25T07:56:40.716Z,56.00
2017-09-25T07:57:41.449Z,47.00
2017-09-25T07:58:42.183Z,54.00
2017-09-25T07:59:42.940Z,53.00
2017-09-25T08:00:43.676Z,51.00
2017-09-25T08:01:44.411Z,47.00
2017-09-25T08:02:45.146Z,54.00
2017-09-25T08:03:45.881Z,46.00
2017-09-25T08:04:46.614Z,49.00
2017-09-25T08:05:47.349Z,40.00
2017-09-25T08:06:48.088Z,51.00
2017-09-25T08:07:48.824Z,47.00
2017-09-25T08:08:49.559Z,48.00
2017-09-25T08:09:50.298Z,50.00
2017-09-25T08:10:51.058Z,59.00
2017-09-25T08:11:51.805Z,53.00
2017-09-25T08:12:52.547Z,41.00
2017-09-25T08:13:53.286Z,46.00
2017-09-25T08:14:54.048Z,46.00
2017-09-25T08:15:54.797Z,52.00
2017-09-25T08:16:55.535Z,46.00
2017-09-25T08:17:56.273Z,31.00
2017-09-25T08:18:57.037Z,43.00
2017-09-25T08:19:57.779Z,41.00
2017-09-25T08:20:58.519Z,41.00
2017-09-25T08:21:59.262Z,52.00
2017-09-25T08:23:00.025Z,40.00
2017-09-25T08:24:00.768Z,42.00
2017-09-25T08:25:01.510Z,38.00
2017-09-25T08:26:02.249Z,44.00
2017-09-25T08:27:03.010Z,43.00
2017-09-25T08:28:03.752Z,38.00
2017-09-25T08:29:04.516Z,41.00
2017-09-25T08:30:05.257Z,31.00
2017-09-25T08:31:06.002Z,31.00
2017-09-25T08:32:06.742Z,28.00
2017-09-25T08:33:07.485Z,39.00
2017-09-25T08:34:08.228Z,43.00
2017-09-25T08:35:08.970Z,31.00
2017-09-25T08:36:09.715Z,46.00
2017-09-25T08:37:10.478Z,36.00
2017-09-25T08:38:11.239Z,37.00
2017-09-25T08:39:11.987Z,33.00
2017-09-25T08:40:12.719Z,33.00
2017-09-25T08:41:13.477Z,33.00
2017-09-25T08:42:14.220Z,31.00
2017-09-25T08:43:14.968Z,39.00
2017-09-25T08:44:15.708Z,31.00
2017-09-25T08:45:16.469Z,37.00
2017-09-25T08:46:17.208Z,39.00
2017-09-25T08:47:17.948Z,33.00
2017-09-25T08:48:18.686Z,46.00
2017-09-25T08:49:19.428Z,34.00
2017-09-25T08:50:20.194Z,32.00
2017-09-25T08:51:20.934Z,31.00
2017-09-25T08:52:21.703Z,25.00
2017-09-25T08:53:22.436Z,32.00
2017-09-25T08:54:23.175Z,32.00
2017-09-25T08:55:23.918Z,31.00
2017-09-25T08:56:24.660Z,30.00
2017-09-25T08:57:25.398Z,32.00
2017-09-25T08:58:26.135Z,34.00
2017-09-25T08:59:26.874Z,34.00
2017-09-25T09:00:27.632Z,28.00
2017-09-25T09:01:28.371Z,28.00
2017-09-25T09:02:29.111Z,32.00
2017-09-25T09:03:29.850Z,30.00
2017-09-25T09:04:30.588Z,30.00
2017-09-25T09:05:31.349Z,33.00
2017-09-25T09:06:32.090Z,36.00
2017-09-25T09:07:32.829Z,29.00
2017-09-25T09:08:33.570Z,35.00
2017-09-25T09:09:34.333Z,29.00
2017-09-25T09:10:35.071Z,26.00
2017-09-25T09:11:35.809Z,31.00
2017-09-25T09:12:36.551Z,39.00
2017-09-25T09:13:37.293Z,33.00
2017-09-25T09:14:38.059Z,31.00
2017-09-25T09:15:38.801Z,25.00
2017-09-25T09:16:39.562Z,32.00
2017-09-25T09:17:40.331Z,30.00
2017-09-25T09:18:41.073Z,30.00
2017-09-25T09:19:41.814Z,27.00
2017-09-25T09:20:42.558Z,31.00
2017-09-25T09:21:43.299Z,23.00
2017-09-25T09:22:44.038Z,40.00
2017-09-25T09:23:44.777Z,29.00
2017-09-25T09:24:45.518Z,35.00
2017-09-25T09:25:46.256Z,22.00
2017-09-25T09:26:46.998Z,26.00
2017-09-25T09:27:47.734Z,26.00
2017-09-25T09:28:48.475Z,26.00
2017-09-25T09:29:49.216Z,25.00
2017-09-25T09:30:49.977Z,25.00
2017-09-25T09:31:50.718Z,32.00
2017-09-25T09:32:51.480Z,26.00
2017-09-25T09:33:52.245Z,32.00
2017-09-25T09:34:52.985Z,30.00
2017-09-25T09:35:53.746Z,23.00
2017-09-25T09:36:54.488Z,26.00
2017-09-25T09:37:55.226Z,25.00
2017-09-25T09:38:55.967Z,22.00
2017-09-25T09:39:56.707Z,29.00
2017-09-25T09:40:57.449Z,22.00
2017-09-25T09:41:58.191Z,24.00
2017-09-25T09:42:58.952Z,28.00
2017-09-25T09:43:59.715Z,21.00
2017-09-25T09:45:00.458Z,28.00
2017-09-25T09:46:01.197Z,27.00
2017-09-25T09:47:01.935Z,32.00
2017-09-25T09:48:02.673Z,23.00
2017-09-25T09:49:03.411Z,26.00
2017-09-25T09:50:04.146Z,24.00
2017-09-25T09:51:04.885Z,26.00
2017-09-25T09:52:05.626Z,26.00
2017-09-25T09:53:06.361Z,28.00
2017-09-25T09:54:07.097Z,25.00
2017-09-25T09:55:07.859Z,33.00
2017-09-25T09:56:08.598Z,37.00
2017-09-25T09:57:09.335Z,32.00
2017-09-25T09:58:10.070Z,35.00
2017-09-25T09:59:10.813Z,41.00
2017-09-25T10:00:11.552Z,24.00
2017-09-25T10:01:12.288Z,30.00
2017-09-25T10:02:13.025Z,34.00
2017-09-25T10:03:13.767Z,32.00
2017-09-25T10:04:14.508Z,28.00
2017-09-25T10:05:15.249Z,33.00
2017-09-25T10:06:15.989Z,27.00
2017-09-25T10:07:16.730Z,38.00
2017-09-25T10:08:17.469Z,35.00
2017-09-25T10:09:18.209Z,44.00
2017-09-25T10:10:18.970Z,32.00
2017-09-25T10:11:19.712Z,27.00
2017-09-25T10:12:20.450Z,34.00
2017-09-25T10:13:21.192Z,28.00
2017-09-25T10:14:21.931Z,36.00
2017-09-25T10:15:22.669Z,35.00
2017-09-25T10:16:23.407Z,37.00
2017-09-25T10:17:24.144Z,42.00
2017-09-25T10:18:24.885Z,41.00
2017-09-25T10:19:25.620Z,39.00
2017-09-25T10:20:26.359Z,42.00
2017-09-25T10:21:27.098Z,46.00
2017-09-25T10:22:27.839Z,39.00
2017-09-25T10:23:28.600Z,37.00
2017-09-25T10:24:29.340Z,34.00
2017-09-25T10:25:30.078Z,41.00
2017-09-25T10:26:30.816Z,39.00
2017-09-25T10:27:31.553Z,37.00
2017-09-25T10:28:32.291Z,36.00
2017-09-25T10:29:33.030Z,32.00
2017-09-25T10:30:33.768Z,39.00
2017-09-25T10:31:34.506Z,48.00
2017-09-25T10:32:35.242Z,45.00
2017-09-25T10:33:35.981Z,43.00
2017-09-25T10:34:36.741Z,43.00
2017-09-25T10:35:37.479Z,42.00
2017-09-25T10:36:38.235Z,38.00
2017-09-25T10:37:38.990Z,39.00
2017-09-25T10:38:39.725Z,55.00
2017-09-25T10:39:40.459Z,28.00
2017-09-25T10:40:41.194Z,40.00
2017-09-25T10:41:41.928Z,44.00
2017-09-25T10:42:42.660Z,40.00
2017-09-25T10:43:43.397Z,41.00
2017-09-25T10:44:44.131Z,45.00
2017-09-25T10:45:44.889Z,37.00
2017-09-25T10:46:45.622Z,41.00
2017-09-25T10:47:46.356Z,34.00
2017-09-25T10:48:47.093Z,31.00
2017-09-25T10:49:47.825Z,35.00
2017-09-25T10:50:48.580Z,32.00
2017-09-25T10:51:49.311Z,36.00
2017-09-25T10:52:50.045Z,41.00
2017-09-25T10:53:50.780Z,39.00
2017-09-25T10:54:51.534Z,36.00
2017-09-25T10:55:52.286Z,32.00
2017-09-25T10:56:53.018Z,35.00
2017-09-25T10:57:53.753Z,41.00
2017-09-25T10:58:54.509Z,41.00
2017-09-25T10:59:55.242Z,39.00
2017-09-25T11:00:55.978Z,38.00
2017-09-25T11:01:56.734Z,43.00
2017-09-25T11:02:57.488Z,41.00
2017-09-25T11:03:58.237Z,32.00
2017-09-25T11:04:58.990Z,37.00
2017-09-25T11:05:59.745Z,34.00
2017-09-25T11:07:00.476Z,41.00
2017-09-25T11:08:01.211Z,40.00
2017-09-25T11:09:01.967Z,41.00
2017-09-25T11:10:02.699Z,40.00
2017-09-25T11:11:03.435Z,41.00
2017-09-25T11:12:04.168Z,36.00
2017-09-25T11:13:04.923Z,40.00
2017-09-25T11:14:05.654Z,42.00
2017-09-25T11:15:06.387Z,48.00
2017-09-25T11:16:07.122Z,48.00
2017-09-25T11:17:07.878Z,49.00
2017-09-25T11:18:08.612Z,43.00
2017-09-25T11:19:09.366Z,37.00
2017-09-25T11:20:10.097Z,39.00
2017-09-25T11:21:10.833Z,38.00
2017-09-25T11:22:11.587Z,50.00
2017-09-25T11:23:12.319Z,34.00
2017-09-25T11:24:13.051Z,36.00
2017-09-25T11:25:13.785Z,38.00
2017-09-25T11:26:14.523Z,40.00
2017-09-25T11:27:15.260Z,38.00
2017-09-25T11:28:15.992Z,41.00
2017-09-25T11:29:16.727Z,35.00
2017-09-25T11:30:17.458Z,37.00
2017-09-25T11:31:18.190Z,40.00
2017-09-25T11:32:18.942Z,60.00
2017-09-25T11:33:19.674Z,45.00
2017-09-25T11:34:20.407Z,44.00
2017-09-25T11:35:21.154Z,45.00
2017-09-25T11:36:21.886Z,51.00
2017-09-25T11:37:22.620Z,58.00
2017-09-25T11:38:23.372Z,45.00
2017-09-25T11:39:24.103Z,60.00
2017-09-25T11:40:24.835Z,49.00
2017-09-25T11:41:25.567Z,44.00
2017-09-25T11:42:26.318Z,50.00
2017-09-25T11:43:27.073Z,46.00
2017-09-25T11:44:27.803Z,42.00
2017-09-25T11:45:28.537Z,45.00
2017-09-25T11:46:29.265Z,58.00
2017-09-25T11:47:29.997Z,47.00
2017-09-25T11:48:30.726Z,43.00
2017-09-25T11:49:31.460Z,52.00
2017-09-25T11:50:32.190Z,56.00
2017-09-25T11:51:32.925Z,60.00
2017-09-25T11:52:33.653Z,64.00
2017-09-25T11:53:34.411Z,59.00
2017-09-25T11:54:35.161Z,55.00
2017-09-25T11:55:35.888Z,52.00
2017-09-25T11:56:36.618Z,65.00
2017-09-25T11:57:37.371Z,61.00
2017-09-25T11:58:38.099Z,76.00
2017-09-25T11:59:38.833Z,54.00
2017-09-25T12:00:39.562Z,46.00
2017-09-25T12:01:40.292Z,61.00
2017-09-25T12:02:41.023Z,74.00
2017-09-25T12:03:41.753Z,76.00
2017-09-25T12:04:42.507Z,58.00
2017-09-25T12:05:43.239Z,72.00
2017-09-25T12:06:43.989Z,67.00
2017-09-25T12:07:44.733Z,63.00
2017-09-25T12:08:45.452Z,71.00
2017-09-25T12:09:46.203Z,59.00
2017-09-25T12:10:46.956Z,60.00
2017-09-25T12:11:47.683Z,73.00
2017-09-25T12:12:48.416Z,73.00
2017-09-25T12:13:49.145Z,58.00
2017-09-25T12:14:49.896Z,74.00
2017-09-25T12:15:50.625Z,67.00
2017-09-25T12:16:51.379Z,66.00
2017-09-25T12:17:52.113Z,70.00
2017-09-25T12:18:52.863Z,69.00
2017-09-25T12:19:53.592Z,71.00
2017-09-25T12:20:54.324Z,59.00
2017-09-25T12:21:55.072Z,56.00
2017-09-25T12:22:55.804Z,55.00
2017-09-25T12:23:56.533Z,59.00
2017-09-25T12:24:57.265Z,51.00
2017-09-25T12:25:58.016Z,53.00
2017-09-25T12:26:58.747Z,55.00
2017-09-25T12:27:59.480Z,63.00
2017-09-25T12:29:00.208Z,61.00
2017-09-25T12:30:00.937Z,54.00
2017-09-25T12:31:01.669Z,51.00
2017-09-25T12:32:02.398Z,45.00
2017-09-25T12:33:03.152Z,61.00
2017-09-25T12:34:03.880Z,53.00
2017-09-25T12:35:04.608Z,56.00
2017-09-25T12:36:05.363Z,57.00
2017-09-25T12:37:06.112Z,50.00
2017-09-25T12:38:06.840Z,51.00
2017-09-25T12:39:07.573Z,56.00
2017-09-25T12:40:08.305Z,53.00
2017-09-25T12:41:09.032Z,55.00
2017-09-25T12:42:09.762Z,53.00
2017-09-25T12:43:10.495Z,55.00
2017-09-25T12:44:11.226Z,58.00
2017-09-25T12:45:11.955Z,54.00
2017-09-25T12:46:12.688Z,47.00
2017-09-25T12:47:13.440Z,65.00
2017-09-25T12:48:14.170Z,53.00
2017-09-25T12:49:14.906Z,70.00
2017-09-25T12:50:15.634Z,55.00
2017-09-25T12:51:16.388Z,67.00
2017-09-25T12:52:17.118Z,54.00
2017-09-25T12:53:17.849Z,50.00
2017-09-25T12:54:18.582Z,53.00
2017-09-25T12:55:19.313Z,61.00
2017-09-25T12:56:20.045Z,56.00
2017-09-25T12:57:20.774Z,51.00
2017-09-25T12:58:21.506Z,59.00
2017-09-25T12:59:22.261Z,58.00
2017-09-25T13:00:22.991Z,53.00
2017-09-25T13:01:23.742Z,56.00
2017-09-25T13:02:24.477Z,56.00